Enter the Airport ICAO Code

Search by Airport or City

Current Weather

LEMH | Menorca Airport (Mahón Airport)

Menorca, Balearic Islands, Spain

Last Update 33 Minutes Ago

Clear Sky

Temperature of 28 ºC

Light to Moderate Winds from NorthEast

Temperature

28 ºC

Dew Point Temperature

18 ºC

Relative Humidity

54.78 %

Wind Direction

NorthEast (040º, Ranging from 350º to 110º)

Wind Velocity

15 km/h (08 kt)

Gusts

None

Visibility

No Significant Reductions

Sea Level Pressure

1018 hPa (Hectopascals)

Layers of Clouds

None

METAR LEMH 131200Z 04008KT 350V110 CAVOK 28/18 Q1018

Weather Forecast

LEMH | Menorca Airport (Mahón Airport)

Menorca, Balearic Islands, Spain

Forecast valid for the next 20 Hours

From now on it is expected:

Sky with Few Clouds

Moderate Winds from NorthEast

Maximum Temperature

30 ºC in -1 Hours

Minimum Temperature

20 ºC in 17 Hours

TAF LEMH 130800Z 1309/1409 03010KT 9999 FEW030 TX30/1312Z TN20/1406Z